Aeroporto :
LOGIN :

Iscrizione | Disclaimer

   EN    FR    IT 

 










Sommario :    VFR   VFR Marginale   IFR   IFR Intensivo   IFR Molto Intensivo
Visibilità : 
Base nubi : 
>= 8 km
>= 3000ft
5 / 8 km
1000 / 3000 ft
1500m / 5 km
500 / 1000 ft
800 / 1500m
200 / 500 ft
< 800m
< 200 ft
Simboli :   Temporali  Nebbia  Neve Forte  Precipitazioni Forti  Vento > 20 kt
SIGMETs :   Varie  Temporali  Ghiacco  Turbolenza  Onda orograficha  Ceneri Vulcaniche







- Altitudine del aeroporto : 978 ft
- Codice IATA : LNZ


LOWL - Linz

ULTIMO METAR :
  • 250120Z AUTO 28013KT 7000 FEW024 SCT070 09/05 Q1018

METARs OBSOLETI :
  • 250050Z AUTO 29014KT 8000 FEW050 BKN070 10/05 Q1018
  • 250020Z AUTO 28013KT 9000 FEW050 BKN080 10/06 Q1018
  • 242350Z AUTO 26010KT 220V280 9000 BKN050 11/06 Q1018
  • 242320Z AUTO 25004KT 9000 BKN050 09/06 Q1018
  • 242250Z AUTO 27004KT 220V320 6000 BKN050 10/07 Q1019

TAF TAF LOWL
Valido dal 25 a 00 ore il 26 a 00 ore UTC


242315Z 2500/2524 27010KT 9999 BKN050 TX10/2500Z TN03/2524Z
TEMPO 2500/2524 28015G25KT -SHRA BKN020
TEMPO 2510/2517 30024G36KT SCT040
Nessun NOTAM noto per questo aeroporto.



MetMap, La meteo Aeronautica in un colpo d'occhio ! - Copyright ORBIFLY Dicembre 2007 - Disclaimer

ORBIFLY MET'MAP TEAM :

Programmazione e sviluppo : Alexandra Zaïnal
Concezione e sviluppo : Baudouin d'Aumeries
Co-Programmazione e sviluppo : Marc-Olivier Méhu
Supporto tecnico e logistico : Manuel Goepfert
Aiuto per la traduzione : Arnaldo La Scala

Contatto : metmap@orbifly.com




FONTI E CREDITI :

   NOAA